Latest Weather Observations for Darwin Airport

IDD60901

Issued at 7:01 pm CST Wednesday 19 September 2018 (issued every 10 minutes, with the page automatically refreshed every 10 minutes)

About weather observations | Map of Darwin area stations | Latest observations for Darwin area | Other Formats
Station Details ID: 014015 Name: DARWIN AIRPORT Lat: -12.42 Lon: 130.89 Height: 30.4 m
Data from the previous 72 hours. | See also: Recent months at Darwin Airport
Date/Time
CST
Temp
°C
App
Temp
°C
Dew
Point
°C
Rel
Hum
%
Delta-T
°C
Wind Press
QNH
hPa
Press
MSL
hPa
Rain since
9am
mm
Dir  Spd
km/h
Gust
km/h
Spd
kts
Gust
kts
19/06:30pm 28.6 30.2 20.8 62 5.2 WNW 13 19 7 10 1009.1 1008.9 0.0
19/06:00pm 28.9 29.7 21.3 63 5.1 WNW 19 22 10 12 1008.9 1008.7 0.0
19/05:30pm 29.7 30.1 21.7 62 5.4 WNW 22 26 12 14 1008.5 1008.3 0.0
19/05:00pm 30.1 30.9 21.7 60 5.7 NW 20 26 11 14 1008.4 1008.2 0.0
19/04:30pm 29.9 30.4 21.1 59 5.9 NW 20 28 11 15 1008.3 1008.1 0.0
19/04:00pm 30.3 30.2 21.4 59 6.0 NW 24 32 13 17 1008.3 1008.1 0.0
19/03:30pm 30.4 29.4 20.5 55 6.6 NW 26 32 14 17 1008.6 1008.4 0.0
19/03:00pm 31.1 30.4 21.1 55 6.7 NW 26 33 14 18 1008.7 1008.5 0.0
19/02:30pm 30.9 30.4 20.7 54 6.8 NW 24 32 13 17 1009.0 1008.8 0.0
19/02:00pm 31.9 30.9 20.5 51 7.6 WNW 26 32 14 17 1009.6 1009.4 0.0
19/01:30pm 31.8 31.5 20.4 51 7.6 WNW 22 30 12 16 1010.3 1010.1 0.0
19/01:00pm 30.9 31.0 20.0 52 7.2 NW 19 26 10 14 1010.8 1010.6 0.0
19/12:30pm 31.7 30.2 17.8 43 8.9 NW 22 32 12 17 1011.3 1011.1 0.0
19/12:00pm 31.4 30.9 16.9 41 9.2 WNW 15 20 8 11 1011.9 1011.7 0.0
19/11:30am 31.1 31.7 16.9 42 9.0 SSW 9 15 5 8 1012.6 1012.4 0.0
19/11:00am 30.3 31.9 19.1 51 7.3 SW 9 17 5 9 1013.3 1013.1 0.0
19/10:30am 29.8 32.6 20.4 57 6.2 SW 6 9 3 5 1013.7 1013.5 0.0
19/10:00am 29.2 32.1 21.1 61 5.4 S 7 13 4 7 1013.8 1013.6 0.0
19/09:30am 28.7 31.6 21.7 66 4.7 W 9 13 5 7 1013.8 1013.6 0.0
19/09:00am 28.0 32.1 23.0 74 3.4 S 6 11 3 6 1013.7 1013.5 0.0
19/08:30am 26.8 31.1 23.7 83 2.1 S 7 11 4 6 1013.3 1013.1 0.0
19/08:00am 25.6 29.1 22.8 84 1.9 SSW 9 15 5 8 1012.8 1012.6 0.0
19/07:30am 24.6 29.8 22.8 90 1.2 CALM 0 0 0 0 1012.3 1012.1 0.0
19/07:00am 22.2 25.8 21.3 95 0.6 ESE 4 4 2 2 1012.2 1012.0 0.0
19/06:30am 22.1 25.5 20.9 93 0.8 E 4 4 2 2 1011.7 1011.5 0.0
19/06:12am 22.2 25.6 21.0 93 0.8 E 4 4 2 2 1011.6 1011.4 0.0
19/06:00am 22.1 25.9 20.9 93 0.8 E 2 4 1 2 1011.4 1011.2 0.0
19/05:30am 22.2 25.7 21.1 93 0.7 ENE 4 4 2 2 1010.9 1010.7 0.0
19/05:00am 22.3 25.9 21.2 93 0.7 ENE 4 4 2 2 1010.6 1010.4 0.0
19/04:30am 22.4 26.0 21.2 93 0.8 NNE 4 4 2 2 1010.6 1010.4 0.0
19/04:00am 22.4 26.0 21.2 93 0.8 NE 4 6 2 3 1010.6 1010.4 0.0
19/03:30am 23.0 26.8 21.6 92 0.9 NE 4 6 2 3 1011.1 1010.9 0.0
19/03:00am 23.1 26.9 21.6 91 1.0 ENE 4 4 2 2 1011.3 1011.1 0.0
19/02:30am 23.2 27.7 21.5 90 1.1 CALM 0 0 0 0 1011.7 1011.5 0.0
19/02:00am 23.9 28.0 21.6 87 1.5 ENE 2 4 1 2 1011.8 1011.6 0.0
19/01:30am 24.0 28.1 21.6 86 1.6 E 2 6 1 3 1012.3 1012.1 0.0
19/01:00am 24.8 29.5 22.0 84 1.9 CALM 0 0 0 0 1012.5 1012.3 0.0
19/12:30am 26.2 29.6 22.0 77 2.8 SW 7 11 4 6 1012.7 1012.5 0.0
19/12:00am 25.3 29.1 21.7 80 2.4 WSW 4 6 2 3 1013.0 1012.8 0.0
 
Date/Time
CST
Temp
°C
App
Temp
°C
Dew
Point
°C
Rel
Hum
%
Delta-T
°C
Wind Press
QNH
hPa
Press
MSL
hPa
Rain since
9am
mm
Dir  Spd
km/h
Gust
km/h
Spd
kts
Gust
kts
18/11:30pm 26.4 30.0 22.1 77 2.9 SW 6 6 3 3 1013.0 1012.8 0.0
18/11:00pm 26.6 30.2 22.1 76 3.0 SW 6 7 3 4 1012.9 1012.7 0.0
18/10:30pm 26.8 30.5 22.2 76 3.1 W 6 9 3 5 1012.8 1012.6 0.0
18/10:00pm 27.0 30.6 22.1 74 3.3 W 6 7 3 4 1012.7 1012.5 0.0
18/09:30pm 27.1 29.3 21.9 73 3.5 SSW 13 17 7 9 1012.2 1012.0 0.0
18/09:00pm 27.4 30.1 21.4 70 4.0 SSW 9 13 5 7 1011.8 1011.6 0.0
18/08:30pm 27.6 28.8 20.6 65 4.6 SSW 15 19 8 10 1011.1 1010.9 0.0
18/08:00pm 28.1 29.6 19.7 60 5.5 SW 11 17 6 9 1010.8 1010.6 0.0
18/07:30pm 28.8 29.6 18.2 52 6.8 SW 11 17 6 9 1010.4 1010.2 0.0
18/07:00pm 29.8 29.0 11.8 33 10.5 WNW 7 11 4 6 1010.0 1009.8 0.0
18/06:30pm 30.1 29.4 13.2 35 10.1 WNW 9 15 5 8 1009.5 1009.3 0.0
18/06:00pm 30.7 28.8 14.2 36 10.0 WNW 17 20 9 11 1009.1 1008.9 0.0
18/05:30pm 31.3 29.7 14.9 37 10.1 NW 17 22 9 12 1008.6 1008.4 0.0
18/05:00pm 32.8 29.8 11.8 27 12.4 NNW 19 26 10 14 1008.3 1008.1 0.0
18/04:30pm 33.4 30.1 11.0 25 13.1 N 19 24 10 13 1008.2 1008.0 0.0
18/04:00pm 33.3 29.2 10.0 24 13.4 N 22 28 12 15 1008.2 1008.0 0.0
18/03:30pm 33.9 30.1 9.7 22 13.9 NNW 20 30 11 16 1008.7 1008.5 0.0
18/03:00pm 33.4 30.4 12.7 28 12.4 NW 20 26 11 14 1009.2 1009.0 0.0
18/02:30pm 34.0 31.0 12.7 27 12.8 NNW 20 37 11 20 1009.6 1009.4 0.0
18/02:00pm 33.6 31.5 13.5 29 12.2 NW 17 24 9 13 1010.2 1010.0 0.0
18/01:30pm 33.0 30.4 16.0 36 10.7 NW 24 33 13 18 1010.6 1010.4 0.0
18/01:00pm 34.4 29.6 7.4 19 15.0 NNW 22 32 12 17 1011.1 1010.9 0.0
18/12:30pm 34.3 29.6 5.9 17 15.4 N 20 26 11 14 1011.7 1011.5 0.0
18/12:00pm 33.9 30.3 9.9 23 13.8 N 19 33 10 18 1012.3 1012.1 0.0
18/11:30am 33.0 29.9 10.3 25 13.1 NE 17 32 9 17 1013.2 1013.0 0.0
18/11:00am 32.5 31.0 14.1 32 11.2 NE 15 22 8 12 1013.7 1013.5 0.0
18/10:30am 30.8 30.4 18.0 46 8.2 NNE 17 22 9 12 1014.1 1013.9 0.0
18/10:00am 30.0 31.3 18.5 50 7.4 ENE 9 20 5 11 1014.6 1014.4 0.0
18/09:30am 29.3 30.6 19.3 55 6.5 ENE 11 17 6 9 1014.6 1014.4 0.0
18/09:00am 28.6 30.8 20.4 61 5.4 NE 9 15 5 8 1014.6 1014.4 0.2
18/08:30am 27.6 31.4 22.7 74 3.3 ENE 7 11 4 6 1014.3 1014.1 0.0
18/08:00am 26.4 30.6 23.2 82 2.2 ENE 6 9 3 5 1014.1 1013.9 0.0
18/07:30am 24.8 28.9 23.0 90 1.2 ESE 6 7 3 4 1013.9 1013.7 0.0
18/07:00am 22.7 26.2 21.8 95 0.6 E 6 6 3 3 1013.5 1013.3 0.0
18/06:30am 22.9 26.5 22.1 95 0.5 E 6 6 3 3 1013.1 1012.9 0.0
18/06:00am 22.6 26.7 21.5 93 0.7 NE 2 4 1 2 1012.8 1012.6 0.0
18/05:30am 22.6 26.3 21.4 93 0.8 NE 4 4 2 2 1012.3 1012.1 0.0
18/05:00am 22.9 26.8 21.2 90 1.1 ENE 2 4 1 2 1012.2 1012.0 0.0
18/04:30am 23.7 27.4 21.4 87 1.5 SSE 4 4 2 2 1012.0 1011.8 0.0
18/04:00am 23.8 27.5 21.4 86 1.6 SW 4 6 2 3 1011.7 1011.5 0.0
18/03:30am 23.7 27.4 21.4 87 1.5 SSW 4 4 2 2 1012.0 1011.8 0.0
18/03:00am 24.8 28.6 21.6 82 2.1 SSW 4 6 2 3 1012.1 1011.9 0.0
18/02:30am 25.2 28.6 21.7 81 2.3 SW 6 6 3 3 1012.4 1012.2 0.0
18/02:00am 25.5 29.3 21.6 79 2.6 SW 4 4 2 2 1012.5 1012.3 0.0
18/01:30am 26.1 29.9 21.6 76 3.0 WSW 4 6 2 3 1012.8 1012.6 0.0
18/01:00am 26.6 29.7 21.5 73 3.4 W 7 11 4 6 1012.9 1012.7 0.0
18/12:30am 26.9 29.3 21.5 72 3.6 W 11 15 6 8 1013.1 1012.9 0.0
18/12:00am 27.0 29.5 21.8 73 3.5 W 11 13 6 7 1013.1 1012.9 0.0
 
Date/Time
CST
Temp
°C
App
Temp
°C
Dew
Point
°C
Rel
Hum
%
Delta-T
°C
Wind Press
QNH
hPa
Press
MSL
hPa
Rain since
9am
mm
Dir  Spd
km/h
Gust
km/h
Spd
kts
Gust
kts
17/11:30pm 27.4 29.3 22.0 72 3.6 WNW 15 20 8 11 1013.2 1013.0 0.0
17/11:00pm 27.5 28.6 22.0 72 3.7 WNW 19 24 10 13 1013.1 1012.9 0.0
17/10:30pm 27.2 28.7 22.0 73 3.5 W 17 20 9 11 1012.9 1012.7 0.0
17/10:00pm 26.4 27.1 18.0 60 5.3 NNW 11 19 6 10 1012.6 1012.4 0.0
17/09:30pm 25.9 27.7 17.3 59 5.4 ENE 4 7 2 4 1012.5 1012.3 0.0
17/09:00pm 25.9 28.8 19.0 65 4.4 ENE 2 4 1 2 1012.1 1011.9 0.0
17/08:30pm 27.2 29.4 18.4 58 5.6 S 4 6 2 3 1011.8 1011.6 0.0
17/08:00pm 27.2 29.0 17.3 54 6.2 WSW 4 7 2 4 1011.4 1011.2 0.0
17/07:30pm 28.8 29.7 16.5 47 7.7 WSW 7 9 4 5 1010.9 1010.7 0.0
17/07:00pm 29.7 30.1 15.2 41 8.9 NW 7 9 4 5 1010.3 1010.1 0.0
17/06:30pm 30.2 30.0 15.7 41 9.0 N 11 15 6 8 1009.7 1009.5 0.0
17/06:00pm 30.9 30.0 15.8 40 9.4 N 15 19 8 10 1009.3 1009.1 0.0
17/05:30pm 31.2 29.5 15.8 39 9.6 N 19 26 10 14 1009.0 1008.8 0.0
17/05:00pm 31.6 30.3 17.3 42 9.1 N 20 26 11 14 1008.7 1008.5 0.0
17/04:30pm 31.2 30.6 18.9 48 8.0 N 20 26 11 14 1008.9 1008.7 0.0
17/04:00pm 31.5 31.3 19.7 49 7.8 NNW 20 26 11 14 1009.1 1008.9 0.0
17/03:30pm 31.8 31.0 18.4 45 8.7 NNW 20 24 11 13 1009.3 1009.1 0.0
17/03:00pm 32.0 31.1 18.1 43 9.0 NNW 20 26 11 14 1009.6 1009.4 0.0
17/02:30pm 32.3 31.2 18.6 44 8.9 NNW 22 33 12 18 1010.2 1010.0 0.0
17/02:00pm 30.7 30.4 19.6 51 7.3 NNW 20 28 11 15 1010.5 1010.3 0.0
17/01:30pm 32.2 31.2 18.9 45 8.7 NNW 22 26 12 14 1010.9 1010.7 0.0
17/01:00pm 34.5 30.3 5.9 17 15.5 E 17 26 9 14 1011.5 1011.3 0.0
17/12:30pm 34.3 32.4 10.4 23 13.9 WNW 11 20 6 11 1011.9 1011.7 0.0
17/12:00pm 33.8 31.2 10.8 24 13.4 WNW 15 22 8 12 1012.6 1012.4 0.0
17/11:30am 32.1 32.1 15.1 35 10.5 SSE 9 22 5 12 1013.2 1013.0 0.0
17/11:00am 30.8 32.2 18.6 48 7.9 SE 9 19 5 10 1013.7 1013.5 0.0
17/10:30am 30.6 30.9 17.0 44 8.6 E 11 19 6 10 1014.0 1013.8 0.0
17/10:00am 29.6 30.6 17.8 49 7.5 ENE 9 19 5 10 1014.0 1013.8 0.0
17/09:30am 28.6 30.3 19.4 57 6.0 E 9 17 5 9 1014.0 1013.8 0.0
17/09:00am 28.4 29.8 19.5 58 5.8 E 11 17 6 9 1013.9 1013.7 0.0
17/08:30am 27.2 30.0 21.5 71 3.8 SE 9 13 5 7 1014.0 1013.8 0.0
17/08:00am 26.1 28.8 22.1 78 2.7 ESE 11 15 6 8 1013.7 1013.5 0.0
17/07:30am 25.1 27.8 22.1 83 2.0 SE 11 13 6 7 1013.0 1012.8 0.0
17/07:00am 24.1 26.8 22.2 89 1.3 SE 11 15 6 8 1012.6 1012.4 0.0
17/06:30am 24.1 27.2 22.2 89 1.3 SE 9 11 5 6 1012.2 1012.0 0.0
17/06:00am 24.2 27.4 22.3 89 1.3 SE 9 9 5 5 1011.8 1011.6 0.0
17/05:30am 24.5 27.7 22.3 87 1.5 SE 9 11 5 6 1011.5 1011.3 0.0
17/05:00am 24.6 27.7 22.2 86 1.6 SE 9 11 5 6 1011.3 1011.1 0.0
17/04:30am 24.8 27.9 22.1 85 1.8 SE 9 9 5 5 1011.3 1011.1 0.0
17/04:00am 25.1 28.8 22.3 84 1.9 SE 6 9 3 5 1011.1 1010.9 0.0
17/03:30am 25.5 29.5 22.7 84 1.9 SSE 6 9 3 5 1011.0 1010.8 0.0
17/03:00am 24.7 28.3 22.0 85 1.8 S 6 7 3 4 1011.1 1010.9 0.0
17/02:30am 26.0 29.6 22.0 78 2.7 S 6 7 3 4 1011.2 1011.0 0.0
17/02:00am 26.2 29.6 21.7 76 3.0 SSW 6 9 3 5 1011.4 1011.2 0.0
17/01:30am 26.4 30.0 22.1 77 2.9 SW 6 7 3 4 1011.6 1011.4 0.0
17/01:00am 26.8 30.4 22.4 77 3.0 SSW 7 9 4 5 1012.1 1011.9 0.0
17/12:30am 27.1 31.3 22.4 75 3.2 SW 4 6 2 3 1012.5 1012.3 0.0
17/12:00am 27.4 31.1 22.2 73 3.5 W 6 7 3 4 1012.7 1012.5 0.0
 
Date/Time
CST
Temp
°C
App
Temp
°C
Dew
Point
°C
Rel
Hum
%
Delta-T
°C
Wind Press
QNH
hPa
Press
MSL
hPa
Rain since
9am
mm
Dir  Spd
km/h
Gust
km/h
Spd
kts
Gust
kts
16/11:30pm 27.2 30.9 22.3 74 3.3 WNW 6 7 3 4 1013.0 1012.8 0.0
16/11:00pm 27.4 30.1 22.2 73 3.5 WNW 11 15 6 8 1012.9 1012.7 0.0
16/10:30pm 27.6 30.8 22.3 73 3.6 W 9 13 5 7 1013.0 1012.8 0.0
16/10:00pm 27.8 29.8 22.3 72 3.7 WNW 15 19 8 10 1012.9 1012.7 0.0
16/09:30pm 28.1 29.7 22.2 70 4.0 WNW 17 20 9 11 1012.9 1012.7 0.0
16/09:00pm 28.1 29.4 21.7 68 4.3 WNW 17 22 9 12 1012.5 1012.3 0.0
16/08:30pm 28.1 29.1 22.2 70 4.0 WNW 20 26 11 14 1011.9 1011.7 0.0
16/08:00pm 28.3 28.7 22.4 70 4.0 WNW 24 33 13 18 1011.3 1011.1 0.0
16/07:30pm 28.9 29.0 21.8 65 4.8 WNW 24 33 13 18 1010.6 1010.4 0.0

Latest Capital City Observations: Canberra | Sydney | Melbourne | Brisbane | Adelaide | Perth | Hobart | Darwin

Other Formats:

Comma delimited format used in spreadsheet applications
http://www.bom.gov.au/fwo/IDD60901/IDD60901.94120.axf

JavaScript Object Notation format (JSON) in row-major order
http://www.bom.gov.au/fwo/IDD60901/IDD60901.94120.json